Time;durP1;ratioP1;P1;durP2;ratioP2;P2;SDS_P1;SDS_P2;PMS_P1;PMS_P2;Temp;Humidity;BMP_temperature;BMP_pressure;BME280_temperature;BME280_humidity;BME280_pressure;Samples;Min_cycle;Max_cycle;Signal;HPM_P1;HPM_P2
2023/09/24 16:11:47;;;;;;;22.23;7.13;;;;;;;22.24;100.00;64304.25;5145754;27;20321;-82
2023/09/24 16:14:14;;;;;;;26.00;9.63;;;;;;;22.19;100.00;64296.44;5123335;27;20266;-83
2023/09/24 16:16:41;;;;;;;24.35;8.10;;;;;;;22.12;100.00;64292.25;5067490;28;20261;-82
2023/09/24 16:19:13;;;;;;;14.95;7.82;;;;;;;22.08;100.00;64287.53;5090285;28;20272;-84
2023/09/24 16:21:40;;;;;;;17.08;7.07;;;;;;;22.07;99.24;64289.59;5087792;28;20203;-83
2023/09/24 16:24:08;;;;;;;21.63;6.88;;;;;;;22.07;97.67;64286.50;5086276;28;20224;-84
2023/09/24 16:26:37;;;;;;;16.23;6.90;;;;;;;21.99;94.68;64280.72;5064543;28;20344;-79
2023/09/24 16:29:06;;;;;;;15.60;6.45;;;;;;;21.96;93.76;64270.34;5081976;28;20239;-80
2023/09/24 16:31:34;;;;;;;10.73;6.07;;;;;;;21.94;92.89;64272.91;5078778;28;20292;-81
2023/09/24 16:34:01;;;;;;;11.38;6.18;;;;;;;21.89;91.05;64268.19;5085156;28;20234;-80
2023/09/24 16:36:29;;;;;;;18.35;7.18;;;;;;;21.87;90.13;64268.19;5077775;28;20193;-81
2023/09/24 16:38:57;;;;;;;14.68;6.00;;;;;;;21.84;89.33;64259.84;5067122;28;20433;-81
2023/09/24 16:41:24;;;;;;;18.67;7.00;;;;;;;21.83;87.81;64254.16;5067278;28;20197;-82
2023/09/24 16:43:51;;;;;;;17.38;7.18;;;;;;;21.88;84.92;64264.03;5072888;28;20205;-83
2023/09/24 16:46:20;;;;;;;15.23;5.28;;;;;;;21.82;82.59;64260.88;5073275;28;20208;-80
2023/09/24 16:48:49;;;;;;;13.25;6.07;;;;;;;21.78;81.74;64254.63;5074066;28;20210;-81
2023/09/24 16:51:17;;;;;;;16.90;5.20;;;;;;;21.84;80.76;64262.44;5076477;28;20224;-83
2023/09/24 16:53:44;;;;;;;15.13;6.25;;;;;;;21.76;81.77;64254.59;5081568;28;20267;-82
2023/09/24 16:56:11;;;;;;;16.05;6.35;;;;;;;21.89;81.43;64268.19;5068663;28;20260;-81
2023/09/24 16:58:39;;;;;;;18.55;5.90;;;;;;;21.84;82.49;64257.78;5079753;28;20192;-80
2023/09/24 17:01:14;;;;;;;22.40;6.68;;;;;;;21.85;82.46;64264.00;5077683;28;20221;-82
2023/09/24 17:03:46;;;;;;;13.93;5.93;;;;;;;21.84;81.88;64265.03;5071601;28;20192;-82
2023/09/24 17:06:14;;;;;;;12.43;6.20;;;;;;;21.82;81.66;64257.75;5072859;28;20276;-82
2023/09/24 17:08:42;;;;;;;11.85;5.30;;;;;;;21.75;80.75;64254.09;5075376;28;20224;-82
2023/09/24 17:11:09;;;;;;;16.95;5.88;;;;;;;21.76;80.57;64252.00;5078032;28;20240;-79
2023/09/24 17:13:36;;;;;;;16.55;5.63;;;;;;;21.76;80.95;64257.72;5070725;28;20201;-80
2023/09/24 17:16:11;;;;;;;15.02;5.53;;;;;;;21.78;79.31;64262.41;5079279;28;20220;-81
2023/09/24 17:18:39;;;;;;;10.48;5.57;;;;;;;21.72;78.93;64253.53;5078312;28;20210;-81
2023/09/24 17:21:12;;;;;;;13.82;4.93;;;;;;;21.76;78.91;64255.13;5073916;28;20280;-81
2023/09/24 17:23:39;;;;;;;27.20;15.10;;;;;;;21.84;80.02;64265.56;5062282;28;20189;-79
2023/09/24 17:26:11;;;;;;;9.25;6.03;;;;;;;21.84;80.47;64259.84;5059500;28;20221;-81
2023/09/24 17:28:39;;;;;;;16.40;5.72;;;;;;;21.86;80.08;64264.53;5058372;28;20392;-82
2023/09/24 17:31:06;;;;;;;12.45;5.88;;;;;;;21.73;78.43;64251.47;5060905;28;20243;-81
2023/09/24 17:33:36;;;;;;;10.18;6.25;;;;;;;21.74;80.00;64252.50;5058726;28;20201;-83
2023/09/24 17:36:05;;;;;;;7.65;5.75;;;;;;;21.74;79.94;64249.91;5052822;28;20271;-81
2023/09/24 17:38:34;;;;;;;18.27;6.43;;;;;;;21.74;81.55;64252.50;5061038;28;20194;-82
2023/09/24 17:41:03;;;;;;;18.38;6.93;;;;;;;21.74;78.87;64247.31;5053544;28;20228;-83
2023/09/24 17:43:31;;;;;;;11.20;5.35;;;;;;;21.75;78.96;64251.50;5053553;28;20215;-80
2023/09/24 17:46:00;;;;;;;12.05;5.28;;;;;;;21.71;77.31;64249.91;5066423;28;20270;-81
2023/09/24 17:48:27;;;;;;;21.58;7.50;;;;;;;21.74;78.38;64252.50;5066190;28;20203;-80
2023/09/24 17:50:59;;;;;;;11.93;5.20;;;;;;;21.87;73.53;64263.00;5057523;28;20518;-84
2023/09/24 17:53:26;;;;;;;19.42;6.15;;;;;;;22.14;69.26;64294.31;5059332;28;20196;-81
2023/09/24 17:55:56;;;;;;;10.93;3.80;;;;;;;22.24;68.53;64307.38;5064471;28;20220;-81
2023/09/24 17:58:25;;;;;;;14.95;6.22;;;;;;;22.31;68.29;64312.09;5068281;28;20200;-82
2023/09/24 18:00:52;;;;;;;19.88;6.00;;;;;;;22.32;67.26;64318.34;5071946;28;20224;-83
2023/09/24 18:03:20;;;;;;;13.82;5.97;;;;;;;22.45;65.64;64326.22;5051005;28;20204;-80
2023/09/24 18:05:48;;;;;;;15.32;6.03;;;;;;;22.53;65.88;64340.28;5054193;28;20247;-80
2023/09/24 18:08:20;;;;;;;17.70;5.28;;;;;;;22.56;64.29;64335.66;5069481;28;20205;-81
2023/09/24 18:10:50;;;;;;;10.52;5.53;;;;;;;22.64;64.02;64346.63;5070080;28;20247;-80
2023/09/24 18:13:22;;;;;;;16.77;5.72;;;;;;;22.64;63.48;64344.00;5070160;28;20245;-84
2023/09/24 18:15:54;;;;;;;8.98;4.97;;;;;;;22.70;62.51;64352.91;5070918;28;20224;-82
2023/09/24 18:18:22;;;;;;;10.95;5.25;;;;;;;22.76;62.11;64363.84;5059181;28;20203;-81
2023/09/24 18:20:51;;;;;;;13.25;4.97;;;;;;;22.80;61.71;64357.63;5064415;28;20414;-80
2023/09/24 18:23:18;;;;;;;14.65;5.05;;;;;;;22.89;61.12;64374.84;5055429;28;20242;-79
2023/09/24 18:25:45;;;;;;;13.10;4.75;;;;;;;23.06;60.12;64390.00;5054013;28;20248;-81
2023/09/24 18:28:12;;;;;;;9.00;5.65;;;;;;;23.21;59.70;64410.38;5065629;28;20207;-80
2023/09/24 18:30:40;;;;;;;13.18;4.68;;;;;;;23.24;58.95;64408.31;5055838;28;20233;-80
2023/09/24 18:33:08;;;;;;;14.07;5.10;;;;;;;23.35;58.27;64417.25;5056274;28;20189;-80
2023/09/24 18:35:37;;;;;;;14.60;5.43;;;;;;;23.40;57.65;64425.09;5050599;28;20218;-82
2023/09/24 18:38:05;;;;;;;13.00;5.88;;;;;;;23.50;56.94;64430.88;5054501;28;20220;-80
2023/09/24 18:40:35;;;;;;;15.40;5.25;;;;;;;23.52;57.03;64443.34;5065013;28;20269;-80
2023/09/24 18:43:02;;;;;;;13.82;5.05;;;;;;;23.52;57.94;64435.03;5053230;28;20231;-80
2023/09/24 18:45:30;;;;;;;11.77;5.32;;;;;;;23.55;56.55;64438.69;5054582;28;20221;-79
2023/09/24 18:48:01;;;;;;;9.93;5.18;;;;;;;23.60;56.15;64451.22;5056219;28;20264;-80
2023/09/24 18:50:30;;;;;;;12.38;5.88;;;;;;;23.68;55.74;64449.69;5052694;28;20229;-80
2023/09/24 18:52:57;;;;;;;15.98;5.40;;;;;;;23.65;55.84;64451.75;5059862;28;20213;-82
2023/09/24 18:55:24;;;;;;;11.38;5.80;;;;;;;23.70;55.21;64457.00;5067138;28;20212;-83
2023/09/24 18:57:51;;;;;;;15.23;6.80;;;;;;;23.72;56.01;64458.56;5062277;28;20200;-83
2023/09/24 19:00:18;;;;;;;11.75;4.80;;;;;;;23.74;55.79;64460.66;5066466;28;20280;-80
2023/09/24 19:02:47;;;;;;;11.80;5.43;;;;;;;23.69;56.06;64453.34;5052064;28;20201;-83
2023/09/24 19:05:16;;;;;;;12.02;5.18;;;;;;;23.71;56.15;64457.53;5052019;28;20273;-82
2023/09/24 19:07:44;;;;;;;18.08;6.10;;;;;;;23.65;58.50;64451.22;5052835;28;20198;-81
2023/09/24 19:10:13;;;;;;;16.95;5.78;;;;;;;23.30;63.04;64412.53;5062740;28;20490;-81
2023/09/24 19:12:42;;;;;;;30.20;15.52;;;;;;;23.04;70.57;64384.81;5054242;28;20197;-84
2023/09/24 19:15:10;;;;;;;17.83;7.72;;;;;;;22.82;71.67;64360.25;5052903;28;20217;-83
2023/09/24 19:17:38;;;;;;;8.65;5.65;;;;;;;22.65;73.93;64349.75;5053140;28;20193;-83
2023/09/24 19:20:06;;;;;;;10.38;6.72;;;;;;;22.56;74.21;64337.72;5066360;28;20233;-82
2023/09/24 19:22:35;;;;;;;9.38;5.45;;;;;;;22.49;75.50;64330.91;5050484;28;20231;-82
2023/09/24 19:25:03;;;;;;;11.00;6.43;;;;;;;22.36;77.10;64314.75;5054146;28;20236;-82
2023/09/24 19:27:30;;;;;;;15.57;6.10;;;;;;;22.28;79.03;64311.03;5051447;28;20224;-83
2023/09/24 19:29:58;;;;;;;15.63;6.38;;;;;;;22.14;81.43;64299.50;5071139;28;20224;-83
2023/09/24 19:32:26;;;;;;;12.38;5.47;;;;;;;22.11;82.86;64288.06;5050271;28;20256;-83
2023/09/24 19:34:53;;;;;;;16.80;7.10;;;;;;;21.96;84.12;64267.22;5050049;28;20227;-83
2023/09/24 19:37:21;;;;;;;21.77;8.10;;;;;;;21.96;86.12;64272.94;5055286;28;20205;-85
2023/09/24 19:39:49;;;;;;;14.52;7.00;;;;;;;21.86;86.73;64259.88;5063752;28;20221;-82
2023/09/24 19:42:19;;;;;;;14.05;6.75;;;;;;;21.72;88.63;64250.41;5051462;28;20193;-83
2023/09/24 19:44:46;;;;;;;16.08;8.68;;;;;;;21.64;89.97;64242.56;5050834;28;20248;-82
2023/09/24 19:47:15;;;;;;;18.33;8.32;;;;;;;21.51;90.89;64229.00;5052587;28;20200;-82
2023/09/24 19:49:41;;;;;;;10.35;6.32;;;;;;;21.45;90.95;64219.63;5064714;28;20214;-83
2023/09/24 19:52:12;;;;;;;12.73;7.20;;;;;;;21.47;90.48;64221.69;5058202;28;20246;-82
2023/09/24 19:54:39;;;;;;;15.70;6.03;;;;;;;21.51;89.72;64225.88;5070541;28;20217;-84
2023/09/24 19:57:08;;;;;;;14.73;6.18;;;;;;;21.50;87.13;64225.34;5064653;28;20197;-83
2023/09/24 19:59:35;;;;;;;14.52;6.07;;;;;;;21.55;85.95;64232.66;5067369;28;20234;-82
2023/09/24 20:02:02;;;;;;;14.77;5.90;;;;;;;21.57;85.53;64234.75;5069938;28;20192;-81
2023/09/24 20:04:30;;;;;;;15.15;6.32;;;;;;;21.62;84.23;64240.47;5062338;28;20223;-82
2023/09/24 20:07:00;;;;;;;18.70;5.82;;;;;;;21.69;81.86;64247.81;5072381;28;20193;-83
2023/09/24 20:09:27;;;;;;;13.68;6.50;;;;;;;21.70;79.65;64250.91;5049965;28;20221;-82
2023/09/24 20:11:55;;;;;;;11.57;5.72;;;;;;;21.76;78.96;64252.00;5053152;28;20217;-82
2023/09/24 20:14:24;;;;;;;19.00;5.53;;;;;;;21.83;77.39;64261.41;5052578;28;20208;-81
2023/09/24 20:16:52;;;;;;;16.88;5.35;;;;;;;21.91;77.06;64267.69;5065338;28;20271;-83
2023/09/24 20:19:19;;;;;;;14.35;5.75;;;;;;;21.96;76.98;64272.94;5069629;28;20280;-82
2023/09/24 20:21:46;;;;;;;17.88;6.28;;;;;;;22.02;77.40;64279.19;5072773;28;20196;-83
2023/09/24 20:24:14;;;;;;;7.90;5.63;;;;;;;22.02;76.77;64281.78;5057008;28;20221;-82
2023/09/24 20:26:41;;;;;;;13.00;5.10;;;;;;;22.00;77.42;64277.13;5053525;28;20206;-80
2023/09/24 20:29:09;;;;;;;16.27;5.50;;;;;;;22.04;78.62;64280.78;5052730;28;20241;-82
2023/09/24 20:31:40;;;;;;;8.60;4.88;;;;;;;22.03;79.64;64277.13;5049771;28;20237;-83
2023/09/24 20:34:07;;;;;;;10.75;5.75;;;;;;;22.07;81.25;64286.50;5052958;28;20244;-81
2023/09/24 20:36:34;;;;;;;16.00;6.50;;;;;;;22.08;81.07;64284.94;5052830;28;20203;-83
2023/09/24 20:39:05;;;;;;;10.07;4.97;;;;;;;22.06;81.18;64285.97;5050050;28;20209;-84
2023/09/24 20:41:35;;;;;;;13.50;5.72;;;;;;;22.08;81.69;64292.72;5059808;28;20200;-82
2023/09/24 20:44:03;;;;;;;12.95;6.00;;;;;;;22.02;82.82;64281.78;5066946;28;20196;-82
2023/09/24 20:46:36;;;;;;;14.55;5.45;;;;;;;21.96;83.59;64267.22;5060037;28;20261;-81
2023/09/24 20:49:05;;;;;;;13.80;5.22;;;;;;;21.98;84.32;64282.28;5052302;28;20189;-82
2023/09/24 20:51:32;;;;;;;12.00;4.78;;;;;;;21.94;84.71;64272.91;5064785;28;20238;-82
2023/09/24 20:53:59;;;;;;;12.05;6.10;;;;;;;22.02;85.16;64286.97;5052791;28;20197;-81
2023/09/24 20:56:26;;;;;;;11.13;4.97;;;;;;;21.97;85.77;64276.03;5051184;28;20425;-82
2023/09/24 20:58:57;;;;;;;8.80;4.53;;;;;;;21.98;85.96;64275.03;5054744;28;20425;-83
2023/09/24 21:01:24;;;;;;;14.15;5.00;;;;;;;21.97;86.54;64273.44;5068572;28;20205;-82
2023/09/24 21:03:51;;;;;;;7.32;4.32;;;;;;;21.97;86.66;64270.84;5069342;28;20197;-81
2023/09/24 21:06:19;;;;;;;13.40;5.80;;;;;;;22.00;87.97;64281.78;5062721;28;20371;-84
2023/09/24 21:08:47;;;;;;;8.68;5.40;;;;;;;21.93;88.12;64269.78;5074769;28;20201;-82
2023/09/24 21:11:14;;;;;;;12.55;5.55;;;;;;;21.98;89.54;64274.50;5072583;28;20259;-82
2023/09/24 21:13:43;;;;;;;10.70;5.68;;;;;;;21.95;91.11;64273.94;5074032;28;20197;-81
2023/09/24 21:16:10;;;;;;;10.13;5.85;;;;;;;21.86;93.15;64265.06;5069314;28;20272;-82
2023/09/24 21:18:38;;;;;;;10.38;4.90;;;;;;;21.80;94.12;64253.59;5070395;28;20201;-82
2023/09/24 21:21:05;;;;;;;8.15;5.13;;;;;;;21.78;95.56;64256.69;5071298;28;20410;-82
2023/09/24 21:23:34;;;;;;;10.65;4.53;;;;;;;21.88;95.38;64266.63;5075270;28;20196;-82
2023/09/24 21:26:03;;;;;;;9.45;4.95;;;;;;;21.88;95.80;64269.75;5059375;28;20229;-80
2023/09/24 21:28:30;;;;;;;7.03;4.50;;;;;;;21.88;95.86;64266.63;5059690;28;20192;-82
2023/09/24 21:31:08;;;;;;;7.65;5.00;;;;;;;21.86;96.43;64257.28;5074695;28;20239;-82
2023/09/24 21:33:36;;;;;;;6.68;4.53;;;;;;;21.88;96.75;64269.22;5066849;28;20240;-81
2023/09/24 21:36:03;;;;;;;7.38;4.78;;;;;;;21.89;96.66;64272.84;5072498;28;20228;-80
2023/09/24 21:38:30;;;;;;;8.23;4.63;;;;;;;21.89;97.29;64268.19;5075330;28;20196;-80
2023/09/24 21:40:59;;;;;;;10.13;5.03;;;;;;;21.81;97.27;64259.31;5071396;28;20227;-82
2023/09/24 21:43:30;;;;;;;9.23;5.00;;;;;;;21.78;97.61;64257.22;5072346;28;20255;-80
2023/09/24 21:45:59;;;;;;;8.45;4.97;;;;;;;21.77;97.38;64251.00;5071474;28;20216;-80
2023/09/24 21:48:26;;;;;;;10.68;5.25;;;;;;;21.81;96.74;64256.72;5063732;28;20501;-81
2023/09/24 21:50:54;;;;;;;8.60;4.13;;;;;;;21.78;95.45;64259.28;5055229;28;20236;-81
2023/09/24 21:53:21;;;;;;;9.63;4.38;;;;;;;21.66;94.96;64241.56;5054684;28;20439;-81
2023/09/24 21:55:49;;;;;;;10.13;4.40;;;;;;;21.62;94.37;64237.91;5072914;28;20283;-80
2023/09/24 21:58:18;;;;;;;7.38;4.75;;;;;;;21.59;95.62;64236.81;5073766;28;20283;-81
2023/09/24 22:00:46;;;;;;;8.18;4.93;;;;;;;21.57;95.64;64234.75;5069436;28;20215;-81
2023/09/24 22:03:14;;;;;;;7.75;4.70;;;;;;;21.66;95.05;64244.16;5070089;28;20199;-81
2023/09/24 22:05:41;;;;;;;7.53;4.35;;;;;;;21.66;94.21;64247.25;5072467;28;20244;-82
2023/09/24 22:08:09;;;;;;;6.20;4.72;;;;;;;21.59;94.88;64236.81;5067583;28;20633;-82
2023/09/24 22:10:36;;;;;;;5.68;4.32;;;;;;;21.64;93.89;64239.97;5051979;28;20245;-82
2023/09/24 22:13:04;;;;;;;8.63;4.47;;;;;;;21.71;92.65;64246.78;5062281;28;20284;-81
2023/09/24 22:15:35;;;;;;;5.55;4.93;;;;;;;21.69;90.39;64244.69;5052269;28;20217;-81
2023/09/24 22:18:04;;;;;;;7.50;4.40;;;;;;;21.60;91.76;64237.88;5056222;28;20205;-81
2023/09/24 22:20:32;;;;;;;11.88;5.15;;;;;;;21.56;92.13;64231.09;5055420;28;20224;-79
2023/09/24 22:23:00;;;;;;;6.20;4.45;;;;;;;21.44;92.63;64221.69;5073762;28;20211;-80
2023/09/24 22:25:27;;;;;;;13.10;4.40;;;;;;;21.40;92.17;64217.50;5072514;28;20479;-82
2023/09/24 22:27:55;;;;;;;4.70;4.15;;;;;;;21.37;92.72;64214.38;5072138;28;20219;-80
2023/09/24 22:30:22;;;;;;;12.98;4.80;;;;;;;21.37;90.59;64211.25;5067847;28;20213;-78
2023/09/24 22:32:51;;;;;;;5.13;4.55;;;;;;;21.35;88.59;64211.75;5059026;28;20221;-81
2023/09/24 22:35:19;;;;;;;5.53;4.10;;;;;;;21.31;89.04;64207.59;5050934;28;20213;-79
2023/09/24 22:37:46;;;;;;;7.50;5.30;;;;;;;21.31;88.69;64205.50;5052758;28;20204;-80
2023/09/24 22:40:15;;;;;;;5.07;4.57;;;;;;;21.28;87.18;64207.56;5051208;28;20225;-79
2023/09/24 22:42:44;;;;;;;10.02;5.22;;;;;;;21.29;87.54;64205.50;5061058;28;20203;-80
2023/09/24 22:45:16;;;;;;;8.18;4.88;;;;;;;21.28;89.51;64201.84;5072953;28;20209;-81
2023/09/24 22:47:43;;;;;;;5.15;4.50;;;;;;;21.28;90.02;64204.44;5069351;28;20201;-81
2023/09/24 22:50:13;;;;;;;11.60;5.65;;;;;;;21.27;90.36;64200.81;5055030;28;20272;-81
2023/09/24 22:52:41;;;;;;;5.88;4.28;;;;;;;21.29;89.40;64202.91;5052076;28;20221;-81
2023/09/24 22:55:10;;;;;;;9.25;5.00;;;;;;;21.31;89.76;64208.09;5052539;28;20210;-81
2023/09/24 22:57:38;;;;;;;12.00;4.78;;;;;;;21.28;89.76;64204.97;5064291;28;20264;-81
2023/09/24 23:00:16;;;;;;;6.35;4.20;;;;;;;21.26;90.02;64202.88;5060030;28;20212;-80
2023/09/24 23:02:43;;;;;;;12.95;5.00;;;;;;;21.24;88.92;64200.81;5053394;28;20200;-79
2023/09/24 23:05:13;;;;;;;9.55;5.45;;;;;;;21.10;89.50;64183.59;5051637;28;20205;-80
2023/09/24 23:07:40;;;;;;;5.68;4.53;;;;;;;20.96;91.27;64168.44;5071608;28;20492;-78
2023/09/24 23:10:10;;;;;;;6.95;4.30;;;;;;;20.91;92.12;64168.38;5070572;28;20228;-80
2023/09/24 23:12:37;;;;;;;11.57;4.97;;;;;;;20.83;92.76;64155.38;5072831;28;20216;-79
2023/09/24 23:15:05;;;;;;;8.32;4.60;;;;;;;20.80;92.44;64152.25;5068559;28;20221;-81
2023/09/24 23:17:33;;;;;;;7.30;4.55;;;;;;;20.85;93.53;64157.47;5064067;28;20197;-79
2023/09/24 23:20:02;;;;;;;7.85;4.35;;;;;;;20.73;93.79;64144.41;5060316;28;20217;-81
2023/09/24 23:22:30;;;;;;;8.68;4.97;;;;;;;20.75;94.36;64147.03;5065055;28;20253;-78
2023/09/24 23:24:58;;;;;;;11.40;5.10;;;;;;;20.75;94.67;64146.50;5070659;28;20283;-80
2023/09/24 23:27:25;;;;;;;8.80;4.90;;;;;;;20.73;94.67;64147.53;5052644;28;20216;-80
2023/09/24 23:29:52;;;;;;;13.60;5.68;;;;;;;20.78;94.40;64144.97;5057276;28;20227;-81
2023/09/24 23:32:19;;;;;;;10.23;5.10;;;;;;;20.81;94.27;64150.19;5051870;28;20244;-78
2023/09/24 23:34:46;;;;;;;7.20;5.40;;;;;;;20.70;95.28;64139.22;5068806;28;20244;-79
2023/09/24 23:37:14;;;;;;;9.18;5.38;;;;;;;20.62;95.92;64136.03;5069748;28;20193;-80
2023/09/24 23:39:43;;;;;;;6.25;4.60;;;;;;;20.62;93.08;64138.63;5072498;28;20239;-80
2023/09/24 23:42:10;;;;;;;7.03;5.03;;;;;;;20.60;91.44;64133.97;5070487;28;20215;-80
2023/09/24 23:44:37;;;;;;;11.82;4.90;;;;;;;20.60;91.08;64131.38;5059009;28;20504;-79
2023/09/24 23:47:05;;;;;;;9.13;4.43;;;;;;;20.64;90.99;64138.13;5064876;28;20265;-79
2023/09/24 23:49:32;;;;;;;7.50;5.38;;;;;;;20.58;91.91;64132.41;5066616;28;20216;-80
2023/09/24 23:52:01;;;;;;;4.55;4.22;;;;;;;20.53;92.15;64119.41;5071723;28;20258;-80
2023/09/24 23:54:28;;;;;;;4.70;4.28;;;;;;;20.43;92.84;64116.72;5071657;28;20217;-80
2023/09/24 23:56:57;;;;;;;10.45;5.38;;;;;;;20.50;92.06;64121.44;5056330;28;20246;-79
2023/09/24 23:59:24;;;;;;;11.40;5.45;;;;;;;20.49;92.46;64128.16;5062269;28;20217;-83
